createdAt,value
2017-11-07T00:00:34.477Z,102072.51
2017-11-07T00:03:02.469Z,102071.48
2017-11-07T00:05:30.489Z,102074.09
2017-11-07T00:07:58.401Z,102078.36
2017-11-07T00:10:26.402Z,102076.92
2017-11-07T00:12:54.341Z,102079.25
2017-11-07T00:15:22.281Z,102079.86
2017-11-07T00:17:50.324Z,102075.37
2017-11-07T00:20:18.254Z,102087.70
2017-11-07T00:22:46.157Z,102078.45
2017-11-07T00:25:14.465Z,102080.08
2017-11-07T00:27:42.410Z,102080.38
2017-11-07T00:30:10.332Z,102082.70
2017-11-07T00:32:38.237Z,102077.73
2017-11-07T00:35:06.558Z,102076.53
2017-11-07T00:37:34.520Z,102078.10
2017-11-07T00:40:02.476Z,102076.81
2017-11-07T00:42:30.416Z,102074.63
2017-11-07T00:44:58.337Z,102070.93
2017-11-07T00:47:26.246Z,102076.47
2017-11-07T00:49:54.544Z,102079.55
2017-11-07T00:52:22.478Z,102074.01
2017-11-07T00:54:50.377Z,102078.13
2017-11-07T00:57:18.310Z,102076.06
2017-11-07T00:59:46.212Z,102074.81
2017-11-07T01:02:14.140Z,102081.50
2017-11-07T01:04:42.053Z,102082.69
2017-11-07T01:07:10.078Z,102082.05
2017-11-07T01:09:37.989Z,102083.34
2017-11-07T01:12:05.910Z,102083.38
2017-11-07T01:14:33.812Z,102084.09
2017-11-07T01:17:02.124Z,102078.10
2017-11-07T01:19:30.130Z,102078.55
2017-11-07T01:21:58.099Z,102078.66
2017-11-07T01:24:26.012Z,102083.26
2017-11-07T01:26:53.993Z,102080.31
2017-11-07T01:29:22.000Z,102072.90
2017-11-07T01:31:49.904Z,102078.93
2017-11-07T01:34:17.827Z,102084.61
2017-11-07T01:36:45.756Z,102081.34
2017-11-07T01:39:13.689Z,102081.83
2017-11-07T01:41:41.605Z,102079.55
2017-11-07T01:44:09.534Z,102081.29
2017-11-07T01:46:37.840Z,102083.42
2017-11-07T01:49:05.771Z,102087.36
2017-11-07T01:51:34.083Z,102085.62
2017-11-07T01:54:02.008Z,102080.42
2017-11-07T01:56:29.919Z,102078.19
2017-11-07T01:58:57.822Z,102076.75
2017-11-07T02:01:25.729Z,102079.34
2017-11-07T02:03:54.023Z,102081.44
2017-11-07T02:06:21.940Z,102084.58
2017-11-07T02:08:49.858Z,102080.97
2017-11-07T02:11:17.775Z,102080.57
2017-11-07T02:13:45.678Z,102085.00
2017-11-07T02:16:13.973Z,102078.30
2017-11-07T02:18:41.898Z,102076.12
2017-11-07T02:21:09.809Z,102078.56
2017-11-07T02:23:37.724Z,102082.14
2017-11-07T02:26:05.640Z,102075.14
2017-11-07T02:28:33.575Z,102082.38
2017-11-07T02:31:01.541Z,102086.30
2017-11-07T02:33:29.447Z,102089.73
2017-11-07T02:35:57.381Z,102092.10
2017-11-07T02:38:25.297Z,102093.48
2017-11-07T02:40:53.216Z,102093.30
2017-11-07T02:43:21.186Z,102093.98
2017-11-07T02:45:49.097Z,102093.63
2017-11-07T02:48:17.016Z,102101.48
2017-11-07T02:50:44.928Z,102089.88
2017-11-07T02:53:12.856Z,102099.28
2017-11-07T02:55:40.826Z,102094.47
2017-11-07T02:58:08.732Z,102089.86
2017-11-07T03:00:36.669Z,102089.11
2017-11-07T03:03:04.572Z,102093.84
2017-11-07T03:05:32.502Z,102086.02
2017-11-07T03:08:00.411Z,102084.83
2017-11-07T03:10:28.442Z,102079.59
2017-11-07T03:12:56.464Z,102084.07
2017-11-07T03:15:24.384Z,102079.38
2017-11-07T03:17:52.758Z,102080.27
2017-11-07T03:20:20.663Z,102075.05
2017-11-07T03:22:48.567Z,102073.26
2017-11-07T03:25:16.487Z,102079.60
2017-11-07T03:27:44.400Z,102081.39
2017-11-07T03:30:12.391Z,102076.47
2017-11-07T03:32:40.349Z,102081.83
2017-11-07T03:35:08.334Z,102078.20
2017-11-07T03:37:36.292Z,102069.95
2017-11-07T03:40:04.269Z,102069.45
2017-11-07T03:42:32.217Z,102068.73
2017-11-07T03:45:00.154Z,102072.70
2017-11-07T03:47:28.082Z,102074.54
2017-11-07T03:49:55.984Z,102073.52
2017-11-07T03:52:24.000Z,102072.42
2017-11-07T03:54:51.908Z,102076.74
2017-11-07T03:57:19.855Z,102079.69
2017-11-07T03:59:47.759Z,102078.04
2017-11-07T04:02:15.800Z,102083.16
2017-11-07T04:04:44.161Z,102083.77
2017-11-07T04:07:12.077Z,102075.59
2017-11-07T04:09:39.995Z,102077.31
2017-11-07T04:12:07.900Z,102078.45
2017-11-07T04:14:35.820Z,102074.52
2017-11-07T04:17:03.796Z,102071.50
2017-11-07T04:19:31.688Z,102069.14
2017-11-07T04:21:59.618Z,102076.41
2017-11-07T04:24:27.537Z,102074.48
2017-11-07T04:26:55.474Z,102070.87
2017-11-07T04:29:23.369Z,102074.24
2017-11-07T04:31:51.685Z,102075.40
2017-11-07T04:34:19.593Z,102072.77
2017-11-07T04:36:47.501Z,102065.98
2017-11-07T04:39:15.404Z,102067.34
2017-11-07T04:41:43.439Z,102074.28
2017-11-07T04:44:11.449Z,102069.13
2017-11-07T04:46:39.354Z,102061.31
2017-11-07T04:49:07.693Z,102064.50
2017-11-07T04:51:35.699Z,102060.59
2017-11-07T04:54:03.993Z,102060.96
2017-11-07T04:56:31.908Z,102056.33
2017-11-07T04:58:59.880Z,102063.55
2017-11-07T05:01:27.802Z,102069.38
2017-11-07T05:03:55.695Z,102066.50
2017-11-07T05:06:23.680Z,102060.11
2017-11-07T05:08:51.588Z,102052.57
2017-11-07T05:11:19.890Z,102055.97
2017-11-07T05:13:47.792Z,102052.69
2017-11-07T05:16:15.768Z,102049.94
2017-11-07T05:18:43.667Z,102048.11
2017-11-07T05:21:12.008Z,102046.63
2017-11-07T05:23:39.916Z,102051.98
2017-11-07T05:26:08.244Z,102048.91
2017-11-07T05:28:36.149Z,102054.47
2017-11-07T05:31:04.444Z,102058.89
2017-11-07T05:33:32.422Z,102057.34
2017-11-07T05:36:00.335Z,102056.61
2017-11-07T05:38:28.231Z,102049.95
2017-11-07T05:40:56.545Z,102052.05
2017-11-07T05:43:24.451Z,102051.95
2017-11-07T05:45:52.360Z,102048.66
2017-11-07T05:48:20.288Z,102058.34
2017-11-07T05:50:48.252Z,102049.85
2017-11-07T05:53:17.034Z,102055.11
2017-11-07T05:55:45.012Z,102050.94
2017-11-07T05:58:12.928Z,102051.79
2017-11-07T06:00:40.820Z,102050.25
2017-11-07T06:03:08.735Z,102051.09
2017-11-07T06:05:37.055Z,102055.36
2017-11-07T06:08:04.984Z,102055.16
2017-11-07T06:10:32.884Z,102054.92
2017-11-07T06:13:00.784Z,102046.08
2017-11-07T06:15:28.695Z,102051.78
2017-11-07T06:17:57.033Z,102059.34
2017-11-07T06:20:25.017Z,102051.34
2017-11-07T06:22:52.924Z,102049.70
2017-11-07T06:25:20.845Z,102060.47
2017-11-07T06:27:48.748Z,102054.09
2017-11-07T06:30:17.068Z,102057.09
2017-11-07T06:32:44.973Z,102063.06
2017-11-07T06:35:12.923Z,102058.80
2017-11-07T06:37:40.825Z,102069.77
2017-11-07T06:40:09.132Z,102065.69
2017-11-07T06:42:37.034Z,102067.64
2017-11-07T06:45:04.961Z,102067.77
2017-11-07T06:47:33.181Z,102068.59
2017-11-07T06:50:01.103Z,102066.30
2017-11-07T06:52:29.009Z,102072.22
2017-11-07T06:54:57.005Z,102070.70
2017-11-07T06:57:24.961Z,102071.45
2017-11-07T06:59:52.924Z,102065.02
2017-11-07T07:02:20.847Z,102060.65
2017-11-07T07:04:48.748Z,102066.89
2017-11-07T07:07:16.839Z,102057.36
2017-11-07T07:09:44.809Z,102060.83
2017-11-07T07:12:12.738Z,102051.50
2017-11-07T07:14:40.664Z,102055.80
2017-11-07T07:17:08.973Z,102050.15
2017-11-07T07:19:36.942Z,102047.01
2017-11-07T07:22:04.892Z,102039.11
2017-11-07T07:24:32.841Z,102049.00
2017-11-07T07:27:01.164Z,102046.06
2017-11-07T07:29:29.130Z,102034.88
2017-11-07T07:31:57.065Z,102036.48
2017-11-07T07:34:25.380Z,102038.55
2017-11-07T07:36:53.309Z,102047.89
2017-11-07T07:39:21.620Z,102041.22
2017-11-07T07:41:49.552Z,102043.73
2017-11-07T07:44:17.844Z,102041.86
2017-11-07T07:46:45.788Z,102042.98
2017-11-07T07:49:13.710Z,102036.13
2017-11-07T07:51:41.636Z,102046.02
2017-11-07T07:54:09.955Z,102040.10
2017-11-07T07:56:37.883Z,102039.05
2017-11-07T07:59:05.824Z,102035.88
2017-11-07T08:01:33.736Z,102034.36
2017-11-07T08:04:01.648Z,102031.80
2017-11-07T08:06:29.560Z,102030.02
2017-11-07T08:08:57.880Z,102036.84
2017-11-07T08:11:25.801Z,102032.56
2017-11-07T08:13:54.124Z,102029.87
2017-11-07T08:16:22.044Z,102026.85
2017-11-07T08:18:50.385Z,102028.05
2017-11-07T08:21:18.316Z,102031.82
2017-11-07T08:23:46.210Z,102027.36
2017-11-07T08:26:14.162Z,102026.91
2017-11-07T08:28:42.135Z,102031.55
2017-11-07T08:31:10.060Z,102030.16
2017-11-07T08:33:38.407Z,102029.34
2017-11-07T08:36:06.324Z,102016.98
2017-11-07T08:38:34.261Z,102018.24
2017-11-07T08:41:02.278Z,102019.08
2017-11-07T08:43:30.300Z,102014.98
2017-11-07T08:45:58.218Z,102017.57
2017-11-07T08:48:26.282Z,102009.20
2017-11-07T08:50:54.205Z,102013.05
2017-11-07T08:53:22.125Z,102015.49
2017-11-07T08:55:50.131Z,102017.51
2017-11-07T08:58:18.044Z,102010.59
2017-11-07T09:00:45.957Z,102002.73
2017-11-07T09:03:13.868Z,102003.66
2017-11-07T09:05:42.219Z,102005.86
2017-11-07T09:08:10.186Z,102011.77
2017-11-07T09:10:38.101Z,102001.88
2017-11-07T09:13:06.025Z,102011.28
2017-11-07T09:15:33.957Z,102009.37
2017-11-07T09:18:01.880Z,102002.70
2017-11-07T09:20:30.185Z,101998.47
2017-11-07T09:22:58.118Z,101992.46
2017-11-07T09:25:26.040Z,102000.91
2017-11-07T09:27:53.949Z,101993.55
2017-11-07T09:30:21.873Z,101992.77
2017-11-07T09:32:49.784Z,101998.05
2017-11-07T09:35:17.692Z,101988.08
2017-11-07T09:37:45.709Z,101985.67
2017-11-07T09:40:13.607Z,101989.19
2017-11-07T09:42:41.529Z,101992.87
2017-11-07T09:45:09.439Z,101989.19
2017-11-07T09:47:37.740Z,101976.56
2017-11-07T09:50:05.687Z,101986.75
2017-11-07T09:52:34.042Z,101991.98
2017-11-07T09:55:01.964Z,102001.72
2017-11-07T09:57:30.760Z,101996.67
2017-11-07T09:59:58.664Z,101982.78
2017-11-07T10:02:26.640Z,101978.14
2017-11-07T10:04:54.594Z,101976.45
2017-11-07T10:07:22.504Z,101970.52
2017-11-07T10:09:50.803Z,101972.45
2017-11-07T10:12:19.177Z,101975.36
2017-11-07T10:14:47.393Z,101974.05
2017-11-07T10:17:15.627Z,101964.53
2017-11-07T10:19:44.518Z,101962.58
2017-11-07T10:22:12.694Z,101955.58
2017-11-07T10:24:41.012Z,101946.76
2017-11-07T10:27:09.245Z,101946.56
2017-11-07T10:29:37.448Z,101945.12
2017-11-07T10:32:05.698Z,101954.88
2017-11-07T10:34:34.996Z,101950.85
2017-11-07T10:37:03.017Z,101949.47
2017-11-07T10:39:30.999Z,101935.74
2017-11-07T10:41:59.386Z,101933.08
2017-11-07T10:44:27.742Z,101924.82
2017-11-07T10:46:56.072Z,101952.37
2017-11-07T10:49:24.100Z,101930.37
2017-11-07T10:51:52.730Z,101932.56
2017-11-07T10:54:20.795Z,101930.38
2017-11-07T10:56:48.824Z,101920.81
2017-11-07T10:59:16.779Z,101935.07
2017-11-07T11:01:44.908Z,101926.73
2017-11-07T11:04:13.082Z,101913.11
2017-11-07T11:06:41.304Z,101911.01
2017-11-07T11:09:09.584Z,101909.34
2017-11-07T11:11:38.562Z,101920.69
2017-11-07T11:14:07.514Z,101914.23
2017-11-07T11:16:35.733Z,101915.00
2017-11-07T11:19:03.885Z,101909.09
2017-11-07T11:21:32.203Z,101898.81
2017-11-07T11:24:00.602Z,101904.65
2017-11-07T11:26:28.907Z,101906.78
2017-11-07T11:28:57.052Z,101901.05
2017-11-07T11:31:25.298Z,101891.92
2017-11-07T11:33:54.004Z,101887.68
2017-11-07T11:36:22.212Z,101891.33
2017-11-07T11:38:50.422Z,101884.41
2017-11-07T11:41:18.660Z,101880.11
2017-11-07T11:43:46.764Z,101866.51
2017-11-07T11:46:14.901Z,101865.55
2017-11-07T11:48:43.740Z,101863.50
2017-11-07T11:51:11.864Z,101857.98
2017-11-07T11:53:40.038Z,101861.54
2017-11-07T11:56:07.976Z,101855.38
2017-11-07T11:58:35.900Z,101851.00
2017-11-07T12:01:03.814Z,101853.36
2017-11-07T12:03:32.104Z,101846.28
2017-11-07T12:06:00.020Z,101849.47
2017-11-07T12:08:27.924Z,101837.91
2017-11-07T12:10:56.229Z,101843.22
2017-11-07T12:13:24.140Z,101829.66
2017-11-07T12:15:52.067Z,101829.83
2017-11-07T12:18:19.965Z,101826.71
2017-11-07T12:20:47.891Z,101821.00
2017-11-07T12:23:15.797Z,101826.73
2017-11-07T12:25:43.711Z,101820.01
2017-11-07T12:28:12.004Z,101814.99
2017-11-07T12:30:39.916Z,101823.58
2017-11-07T12:33:07.867Z,101826.51
2017-11-07T12:35:35.786Z,101815.41
2017-11-07T12:38:04.095Z,101813.94
2017-11-07T12:40:32.033Z,101812.84
2017-11-07T12:43:00.346Z,101810.67
2017-11-07T12:45:28.257Z,101817.22
2017-11-07T12:47:56.188Z,101806.54
2017-11-07T12:50:35.892Z,101807.70
2017-11-07T12:53:04.197Z,101800.66
2017-11-07T12:55:32.100Z,101802.14
2017-11-07T12:58:00.014Z,101802.61
2017-11-07T13:00:28.392Z,101805.16
2017-11-07T13:02:56.688Z,101803.34
2017-11-07T13:05:24.601Z,101807.03
2017-11-07T13:07:52.513Z,101791.86
2017-11-07T13:10:20.418Z,101797.23
2017-11-07T13:12:48.348Z,101800.70
2017-11-07T13:15:16.268Z,101793.13
2017-11-07T13:17:44.181Z,101795.13
2017-11-07T13:20:12.490Z,101786.97
2017-11-07T13:22:40.388Z,101784.08
2017-11-07T13:25:08.301Z,101778.05
2017-11-07T13:27:36.220Z,101776.71
2017-11-07T13:30:04.141Z,101780.38
2017-11-07T13:32:32.057Z,101769.91
2017-11-07T13:34:59.968Z,101770.20
2017-11-07T13:37:27.869Z,101772.64
2017-11-07T13:39:55.783Z,101769.07
2017-11-07T13:42:23.679Z,101762.17
2017-11-07T13:44:51.571Z,101760.45
2017-11-07T13:47:19.492Z,101758.45
2017-11-07T13:49:47.797Z,101752.27
2017-11-07T13:52:15.697Z,101749.22
2017-11-07T13:54:43.601Z,101745.59
2017-11-07T13:57:12.066Z,101746.70
2017-11-07T13:59:40.024Z,101744.09
2017-11-07T14:02:07.996Z,101740.60
2017-11-07T14:04:36.316Z,101740.85
2017-11-07T14:07:04.253Z,101744.78
2017-11-07T14:09:32.201Z,101732.74
2017-11-07T14:12:00.182Z,101737.22
2017-11-07T14:14:28.156Z,101729.97
2017-11-07T14:16:56.123Z,101731.84
2017-11-07T14:19:24.030Z,101730.42
2017-11-07T14:21:51.960Z,101722.42
2017-11-07T14:24:19.868Z,101727.22
2017-11-07T14:26:47.792Z,101721.75
2017-11-07T14:29:15.712Z,101716.47
2017-11-07T14:31:43.643Z,101715.85
2017-11-07T14:34:12.013Z,101717.13
2017-11-07T14:36:39.937Z,101719.95
2017-11-07T14:39:07.838Z,101712.59
2017-11-07T14:41:35.832Z,101708.77
2017-11-07T14:44:04.188Z,101710.23
2017-11-07T14:46:32.527Z,101716.23
2017-11-07T14:49:00.420Z,101704.05
2017-11-07T14:51:28.503Z,101695.56
2017-11-07T14:53:56.467Z,101691.16
2017-11-07T14:56:24.407Z,101695.84
2017-11-07T14:58:52.304Z,101697.84
2017-11-07T15:01:20.227Z,101692.66
2017-11-07T15:03:48.135Z,101696.00
2017-11-07T15:06:16.055Z,101697.02
2017-11-07T15:08:44.141Z,101689.82
2017-11-07T15:11:12.053Z,101699.00
2017-11-07T15:13:39.996Z,101697.02
2017-11-07T15:16:07.905Z,101698.20
2017-11-07T15:18:36.195Z,101692.64
2017-11-07T15:21:04.491Z,101701.84
2017-11-07T15:23:32.396Z,101690.63
2017-11-07T15:26:00.379Z,101684.36
2017-11-07T15:28:28.280Z,101692.70
2017-11-07T15:30:56.179Z,101677.80
2017-11-07T15:33:24.077Z,101682.59
2017-11-07T15:35:52.063Z,101681.73
2017-11-07T15:38:19.950Z,101682.41
2017-11-07T15:40:47.892Z,101682.57
2017-11-07T15:43:15.796Z,101681.64
2017-11-07T15:45:43.702Z,101675.37
2017-11-07T15:48:11.598Z,101669.02
2017-11-07T15:50:39.955Z,101674.59
2017-11-07T15:53:07.855Z,101675.81
2017-11-07T15:55:36.213Z,101667.19
2017-11-07T15:58:04.150Z,101666.83
2017-11-07T16:00:32.149Z,101663.95
2017-11-07T16:03:00.051Z,101662.95
2017-11-07T16:05:28.956Z,101655.40
2017-11-07T16:07:56.862Z,101651.95
2017-11-07T16:10:24.803Z,101642.57
2017-11-07T16:12:52.865Z,101650.27
2017-11-07T16:15:20.775Z,101651.56
2017-11-07T16:17:48.667Z,101649.44
2017-11-07T16:20:17.012Z,101655.84
2017-11-07T16:22:44.917Z,101652.95
2017-11-07T16:25:12.911Z,101652.52
2017-11-07T16:27:40.839Z,101651.35
2017-11-07T16:30:08.788Z,101656.00
2017-11-07T16:32:36.719Z,101658.94
2017-11-07T16:35:04.622Z,101654.09
2017-11-07T16:37:32.559Z,101660.95
2017-11-07T16:40:00.468Z,101656.03
2017-11-07T16:42:28.494Z,101656.34
2017-11-07T16:44:56.400Z,101647.30
2017-11-07T16:47:24.317Z,101645.53
2017-11-07T16:49:52.219Z,101654.25
2017-11-07T16:52:20.135Z,101652.42
2017-11-07T16:54:48.436Z,101652.48
2017-11-07T16:57:16.336Z,101645.73
2017-11-07T16:59:44.247Z,101650.47
2017-11-07T17:02:12.557Z,101650.33
2017-11-07T17:04:40.451Z,101657.02
2017-11-07T17:07:08.582Z,101651.11
2017-11-07T17:09:36.797Z,101644.19
2017-11-07T17:12:05.057Z,101652.42
2017-11-07T17:14:33.425Z,101642.63
2017-11-07T17:17:02.213Z,101645.91
2017-11-07T17:19:32.299Z,101635.05
2017-11-07T17:22:01.126Z,101637.39
2017-11-07T17:24:29.421Z,101626.80
2017-11-07T17:26:57.573Z,101629.99
2017-11-07T17:29:25.951Z,101632.09
2017-11-07T17:31:54.157Z,101635.78
2017-11-07T17:34:22.405Z,101623.25
2017-11-07T17:36:50.425Z,101623.80
2017-11-07T17:39:18.964Z,101617.41
2017-11-07T17:41:47.435Z,101614.00
2017-11-07T17:44:15.654Z,101606.13
2017-11-07T17:46:43.918Z,101606.10
2017-11-07T17:49:12.161Z,101608.46
2017-11-07T17:51:40.438Z,101606.79
2017-11-07T17:54:08.770Z,101615.88
2017-11-07T17:56:38.330Z,101605.67
2017-11-07T17:59:06.494Z,101605.22
2017-11-07T18:01:34.672Z,101606.83
2017-11-07T18:04:02.907Z,101606.52
2017-11-07T18:06:31.098Z,101606.00
2017-11-07T18:08:59.289Z,101596.63
2017-11-07T18:11:27.314Z,101617.86
2017-11-07T18:13:55.641Z,101598.28
2017-11-07T18:16:23.653Z,101606.27
2017-11-07T18:18:51.556Z,101605.08
2017-11-07T18:21:19.901Z,101603.91
2017-11-07T18:23:47.881Z,101611.13
2017-11-07T18:26:15.797Z,101604.41
2017-11-07T18:28:43.812Z,101605.02
2017-11-07T18:31:11.731Z,101605.15
2017-11-07T18:33:39.643Z,101611.59
2017-11-07T18:36:07.568Z,101602.31
2017-11-07T18:38:35.533Z,101594.11
2017-11-07T18:41:03.444Z,101589.73
2017-11-07T18:43:31.420Z,101591.81
2017-11-07T18:45:59.323Z,101591.31
2017-11-07T18:48:27.249Z,101585.66
2017-11-07T18:50:55.165Z,101590.78
2017-11-07T18:53:23.069Z,101582.06
2017-11-07T18:55:50.979Z,101578.06
2017-11-07T18:58:19.272Z,101578.83
2017-11-07T19:00:47.200Z,101577.98
2017-11-07T19:03:15.095Z,101579.66
2017-11-07T19:05:43.094Z,101578.48
2017-11-07T19:08:11.011Z,101569.14
2017-11-07T19:10:38.922Z,101586.14
2017-11-07T19:13:06.828Z,101577.17
2017-11-07T19:15:34.732Z,101570.11
2017-11-07T19:18:03.040Z,101581.29
2017-11-07T19:20:31.016Z,101577.00
2017-11-07T19:22:58.915Z,101578.84
2017-11-07T19:25:26.812Z,101576.20
2017-11-07T19:27:55.108Z,101578.42
2017-11-07T19:30:23.048Z,101574.19
2017-11-07T19:32:50.953Z,101563.66
2017-11-07T19:35:18.888Z,101559.08
2017-11-07T19:37:47.257Z,101559.93
2017-11-07T19:40:15.158Z,101559.02
2017-11-07T19:42:43.080Z,101558.16
2017-11-07T19:45:10.996Z,101553.26
2017-11-07T19:47:38.936Z,101554.50
2017-11-07T19:50:07.264Z,101542.58
2017-11-07T19:52:35.174Z,101544.42
2017-11-07T19:55:03.063Z,101545.78
2017-11-07T19:57:31.365Z,101547.70
2017-11-07T19:59:59.289Z,101543.84
2017-11-07T20:02:27.314Z,101549.97
2017-11-07T20:04:55.330Z,101543.46
2017-11-07T20:07:23.244Z,101554.03
2017-11-07T20:09:51.136Z,101548.69
2017-11-07T20:12:19.112Z,101554.89
2017-11-07T20:14:47.021Z,101546.37
2017-11-07T20:17:15.330Z,101539.14
2017-11-07T20:19:43.238Z,101542.66
2017-11-07T20:22:11.150Z,101548.25
2017-11-07T20:24:39.048Z,101553.36
2017-11-07T20:27:07.035Z,101550.02
2017-11-07T20:29:34.950Z,101549.55
2017-11-07T20:32:02.978Z,101547.96
2017-11-07T20:34:30.883Z,101546.84
2017-11-07T20:36:58.792Z,101547.28
2017-11-07T20:39:26.772Z,101546.45
2017-11-07T20:41:54.757Z,101537.84
2017-11-07T20:44:22.686Z,101534.19
2017-11-07T20:46:50.596Z,101538.31
2017-11-07T20:49:18.507Z,101535.52
2017-11-07T20:51:46.412Z,101527.52
2017-11-07T20:54:14.344Z,101531.16
2017-11-07T20:56:42.247Z,101533.94
2017-11-07T20:59:10.150Z,101532.20
2017-11-07T21:01:38.464Z,101530.61
2017-11-07T21:04:06.380Z,101530.60
2017-11-07T21:06:34.311Z,101527.84
2017-11-07T21:09:02.241Z,101533.11
2017-11-07T21:11:30.554Z,101526.52
2017-11-07T21:13:58.482Z,101529.01
2017-11-07T21:16:26.877Z,101531.14
2017-11-07T21:18:54.778Z,101526.33
2017-11-07T21:21:25.527Z,101520.03
2017-11-07T21:23:53.437Z,101516.66
2017-11-07T21:26:21.360Z,101509.69
2017-11-07T21:28:49.435Z,101510.95
2017-11-07T21:31:17.345Z,101510.61
2017-11-07T21:33:45.239Z,101508.30
2017-11-07T21:36:13.177Z,101520.25
2017-11-07T21:38:41.491Z,101504.58
2017-11-07T21:41:09.488Z,101499.38
2017-11-07T21:43:37.448Z,101488.73
2017-11-07T21:46:05.361Z,101489.72
2017-11-07T21:48:33.713Z,101481.34
2017-11-07T21:51:01.640Z,101485.97
2017-11-07T21:53:29.641Z,101488.20
2017-11-07T21:55:57.615Z,101479.34
2017-11-07T21:58:25.520Z,101480.14
2017-11-07T22:00:53.428Z,101480.45
2017-11-07T22:03:21.328Z,101480.45
2017-11-07T22:05:49.255Z,101476.78
2017-11-07T22:08:17.163Z,101479.31
2017-11-07T22:10:45.715Z,101475.22
2017-11-07T22:13:13.624Z,101476.78
2017-11-07T22:15:41.957Z,101478.94
2017-11-07T22:18:10.754Z,101484.00
2017-11-07T22:20:39.585Z,101482.06
2017-11-07T22:23:13.481Z,101477.44
2017-11-07T22:25:43.592Z,101471.61
2017-11-07T22:28:11.494Z,101470.62
2017-11-07T22:30:39.401Z,101458.28
2017-11-07T22:33:07.300Z,101462.47
2017-11-07T22:35:35.612Z,101472.86
2017-11-07T22:38:03.518Z,101462.78
2017-11-07T22:40:31.488Z,101461.45
2017-11-07T22:42:59.420Z,101457.63
2017-11-07T22:45:27.386Z,101452.94
2017-11-07T22:47:55.300Z,101451.25
2017-11-07T22:50:23.208Z,101452.63
2017-11-07T22:52:51.140Z,101455.62
2017-11-07T22:55:19.038Z,101459.80
2017-11-07T22:57:47.391Z,101452.89
2017-11-07T23:00:15.301Z,101462.73
2017-11-07T23:02:43.217Z,101459.53
2017-11-07T23:05:11.155Z,101448.94
2017-11-07T23:07:39.063Z,101444.52
2017-11-07T23:10:06.981Z,101452.53
2017-11-07T23:12:34.892Z,101447.95
2017-11-07T23:15:02.795Z,101460.44
2017-11-07T23:17:30.710Z,101449.69
2017-11-07T23:19:58.617Z,101440.98
2017-11-07T23:22:26.977Z,101438.22
2017-11-07T23:24:54.945Z,101448.03
2017-11-07T23:27:22.852Z,101440.37
2017-11-07T23:29:50.772Z,101437.80
2017-11-07T23:32:18.676Z,101438.45
2017-11-07T23:34:47.007Z,101441.34
2017-11-07T23:37:14.895Z,101435.95
2017-11-07T23:39:42.854Z,101434.70
2017-11-07T23:42:10.748Z,101430.78
2017-11-07T23:44:39.082Z,101434.48
2017-11-07T23:47:06.989Z,101419.91
2017-11-07T23:49:35.291Z,101428.38
2017-11-07T23:52:03.193Z,101435.41
2017-11-07T23:54:31.112Z,101436.31
2017-11-07T23:56:59.401Z,101433.22
2017-11-07T23:59:27.304Z,101427.71
